Time;durP1;ratioP1;P1;durP2;ratioP2;P2;SDS_P1;SDS_P2;PMS_P1;PMS_P2;Temp;Humidity;BMP_temperature;BMP_pressure;BME280_temperature;BME280_humidity;BME280_pressure;Samples;Min_cycle;Max_cycle;Signal;HPM_P1;HPM_P2
2023/12/01 00:02:17;;;;;;;28.70;18.70;;;4.90;99.90;;;;;;5012921;28;20186;-76
2023/12/01 00:04:43;;;;;;;32.27;20.63;;;5.00;99.90;;;;;;5014905;28;20179;-76
2023/12/01 00:07:08;;;;;;;32.87;20.07;;;5.20;99.90;;;;;;5012956;28;20261;-76
2023/12/01 00:09:34;;;;;;;31.60;19.37;;;5.20;99.90;;;;;;5014092;28;20179;-75
2023/12/01 00:12:00;;;;;;;31.40;19.60;;;5.10;99.90;;;;;;5015074;28;20185;-75
2023/12/01 00:14:26;;;;;;;30.83;19.90;;;5.20;99.90;;;;;;5014242;28;20202;-76
2023/12/01 00:16:52;;;;;;;32.17;18.83;;;5.20;99.90;;;;;;5013906;28;20203;-76
2023/12/01 00:19:17;;;;;;;32.40;19.00;;;5.00;99.90;;;;;;5014256;28;20182;-76
2023/12/01 00:21:43;;;;;;;29.00;18.43;;;4.80;99.90;;;;;;5013183;28;20195;-74
2023/12/01 00:24:09;;;;;;;32.07;19.50;;;4.90;99.90;;;;;;5013489;28;20245;-76
2023/12/01 00:26:34;;;;;;;29.40;18.10;;;4.90;99.90;;;;;;5014772;28;20226;-76
2023/12/01 00:29:00;;;;;;;30.10;18.73;;;4.90;99.90;;;;;;5013015;28;20591;-75
2023/12/01 00:31:26;;;;;;;26.40;18.20;;;4.90;99.90;;;;;;5013436;28;20217;-75
2023/12/01 00:33:51;;;;;;;27.90;17.07;;;5.00;99.90;;;;;;5013555;28;20183;-76
2023/12/01 00:36:17;;;;;;;30.63;18.90;;;5.00;99.90;;;;;;5012894;28;20242;-75
2023/12/01 00:38:43;;;;;;;29.40;17.90;;;5.00;99.90;;;;;;5012789;28;20226;-75
2023/12/01 00:41:09;;;;;;;27.73;17.63;;;5.00;99.90;;;;;;5012915;28;20555;-74
2023/12/01 00:43:36;;;;;;;27.63;17.70;;;5.00;99.90;;;;;;5014138;28;20183;-75
2023/12/01 00:46:04;;;;;;;29.77;17.98;;;5.10;99.90;;;;;;5013631;28;20210;-63
2023/12/01 00:48:30;;;;;;;29.95;17.23;;;4.70;99.90;;;;;;5013310;28;20180;-75
2023/12/01 00:50:56;;;;;;;33.10;17.77;;;4.80;99.90;;;;;;5013202;28;20186;-75
2023/12/01 00:53:22;;;;;;;29.98;17.17;;;4.10;99.90;;;;;;5013187;28;20306;-75
2023/12/01 00:55:48;;;;;;;35.00;19.33;;;4.30;99.90;;;;;;5012866;28;20341;-75
2023/12/01 00:58:13;;;;;;;31.63;19.10;;;4.20;99.90;;;;;;5012175;28;20199;-76
2023/12/01 01:00:40;;;;;;;31.87;18.10;;;4.30;99.90;;;;;;5013452;28;20175;-73
2023/12/01 01:03:06;;;;;;;31.15;18.63;;;4.40;99.90;;;;;;5013178;28;20194;-75
2023/12/01 01:05:32;;;;;;;36.90;18.25;;;4.20;99.90;;;;;;5013302;28;20172;-76
2023/12/01 01:07:58;;;;;;;32.63;17.08;;;4.20;99.90;;;;;;5012974;28;20210;-75
2023/12/01 01:10:24;;;;;;;29.40;17.40;;;4.40;99.90;;;;;;5012633;28;20207;-75
2023/12/01 01:12:51;;;;;;;31.73;18.20;;;4.30;99.90;;;;;;5012819;28;20179;-75
2023/12/01 01:15:16;;;;;;;31.05;16.90;;;4.40;99.90;;;;;;5012067;28;20925;-75
2023/12/01 01:17:42;;;;;;;33.93;17.60;;;4.70;99.90;;;;;;5013475;28;20202;-76
2023/12/01 01:20:10;;;;;;;36.80;19.47;;;4.50;99.90;;;;;;5012192;28;20187;-75
2023/12/01 01:22:39;;;;;;;35.38;18.70;;;4.50;99.90;;;;;;5013028;28;20210;-75
2023/12/01 01:25:05;;;;;;;28.60;17.40;;;4.60;99.90;;;;;;5012996;28;20552;-63
2023/12/01 01:27:31;;;;;;;28.13;17.73;;;4.80;99.90;;;;;;5012690;28;20266;-76
2023/12/01 01:29:57;;;;;;;31.17;17.20;;;4.90;99.90;;;;;;5013395;28;20270;-76
2023/12/01 01:32:24;;;;;;;28.02;17.13;;;4.80;99.90;;;;;;5011922;28;20183;-76
2023/12/01 01:34:50;;;;;;;24.45;15.00;;;4.80;99.90;;;;;;5012338;28;20183;-76
2023/12/01 01:37:16;;;;;;;28.90;16.48;;;4.70;99.90;;;;;;5012769;28;20214;-76
2023/12/01 01:39:42;;;;;;;27.92;15.93;;;4.60;99.90;;;;;;5012145;28;20222;-76
2023/12/01 01:42:08;;;;;;;30.60;17.53;;;4.70;99.90;;;;;;5011448;28;20179;-74
2023/12/01 01:44:33;;;;;;;33.17;18.10;;;4.50;99.90;;;;;;4994524;28;20917;-75
2023/12/01 01:47:00;;;;;;;27.77;17.03;;;4.40;99.90;;;;;;5012383;28;20183;-77
2023/12/01 01:49:27;;;;;;;32.13;17.77;;;4.50;99.90;;;;;;5011667;28;20380;-76
2023/12/01 01:51:58;;;;;;;28.95;17.42;;;4.60;99.90;;;;;;4995302;28;20584;-76
2023/12/01 01:54:25;;;;;;;31.75;17.70;;;4.80;99.90;;;;;;5011589;28;20179;-77
2023/12/01 01:56:55;;;;;;;31.60;17.52;;;5.00;99.90;;;;;;4994283;28;20203;-75
2023/12/01 01:59:22;;;;;;;29.70;16.25;;;4.60;99.90;;;;;;5011646;28;20186;-73
2023/12/01 02:01:51;;;;;;;30.27;16.80;;;4.60;99.90;;;;;;5012637;28;20513;-76
2023/12/01 02:04:17;;;;;;;33.25;17.83;;;4.30;99.90;;;;;;5011637;28;20286;-77
2023/12/01 02:06:45;;;;;;;28.30;16.63;;;4.50;99.90;;;;;;5003352;28;20188;-76
2023/12/01 02:09:13;;;;;;;34.08;18.13;;;4.40;99.90;;;;;;4993000;28;20599;-76
2023/12/01 02:11:39;;;;;;;30.80;17.52;;;4.50;99.90;;;;;;5011291;28;20183;-76
2023/12/01 02:14:05;;;;;;;33.30;18.10;;;4.40;99.90;;;;;;5012131;28;20618;-76
2023/12/01 02:16:31;;;;;;;26.30;14.80;;;4.80;99.90;;;;;;5010467;28;20227;-77
2023/12/01 02:18:57;;;;;;;28.00;15.23;;;4.90;99.90;;;;;;4972584;28;20184;-76
2023/12/01 02:21:26;;;;;;;31.63;17.90;;;5.10;99.90;;;;;;5006134;28;20183;-74
2023/12/01 02:23:52;;;;;;;29.17;16.27;;;5.00;99.90;;;;;;5012211;28;20191;-76
2023/12/01 02:26:19;;;;;;;24.63;15.55;;;5.10;99.90;;;;;;5011266;28;20213;-76
2023/12/01 02:28:45;;;;;;;29.42;17.80;;;5.00;99.90;;;;;;5011553;28;20232;-76
2023/12/01 02:31:11;;;;;;;31.38;17.88;;;5.00;99.90;;;;;;5011849;28;20175;-76
2023/12/01 02:33:37;;;;;;;29.13;16.17;;;5.30;99.90;;;;;;4994132;28;20205;-76
2023/12/01 02:36:11;;;;;;;28.57;16.77;;;4.80;99.90;;;;;;5011824;28;20215;-75
2023/12/01 02:38:37;;;;;;;30.40;17.23;;;5.10;99.90;;;;;;5011385;28;20183;-71
2023/12/01 02:41:03;;;;;;;26.88;16.45;;;4.80;99.90;;;;;;5012455;28;20183;-76
2023/12/01 02:43:29;;;;;;;29.23;16.00;;;5.20;99.90;;;;;;5010013;28;20201;-75
2023/12/01 02:45:55;;;;;;;30.73;16.50;;;5.20;99.90;;;;;;5010753;28;20427;-73
2023/12/01 02:48:22;;;;;;;27.50;16.00;;;5.30;99.90;;;;;;5011489;28;20171;-74
2023/12/01 02:50:47;;;;;;;27.13;15.60;;;5.40;99.90;;;;;;5011265;28;20631;-74
2023/12/01 02:53:15;;;;;;;26.90;14.57;;;5.10;99.90;;;;;;4992813;28;20273;-73
2023/12/01 02:55:41;;;;;;;27.67;15.48;;;5.00;99.90;;;;;;5012204;28;20425;-76
2023/12/01 02:58:07;;;;;;;29.60;15.93;;;5.00;99.90;;;;;;4995057;28;20190;-76
2023/12/01 03:00:32;;;;;;;26.60;14.57;;;4.80;99.90;;;;;;5014568;28;20437;-74
2023/12/01 03:02:58;;;;;;;27.00;16.23;;;4.90;99.90;;;;;;5015381;28;20187;-75
2023/12/01 03:05:24;;;;;;;27.57;14.43;;;5.00;99.90;;;;;;5014154;28;20180;-74
2023/12/01 03:07:51;;;;;;;28.50;15.70;;;4.50;99.90;;;;;;4998654;28;20245;-74
2023/12/01 03:10:16;;;;;;;31.05;15.82;;;4.70;99.90;;;;;;5014130;28;20418;-74
2023/12/01 03:12:43;;;;;;;25.83;14.50;;;4.60;99.90;;;;;;5014970;28;20185;-75
2023/12/01 03:15:14;;;;;;;26.00;13.80;;;4.70;99.90;;;;;;5015141;28;20404;-75
2023/12/01 03:17:40;;;;;;;24.92;14.65;;;4.80;99.90;;;;;;5014699;28;20246;-76
2023/12/01 03:20:09;;;;;;;27.25;15.90;;;4.90;99.90;;;;;;5015032;28;20526;-76
2023/12/01 03:22:35;;;;;;;27.60;15.25;;;4.90;99.90;;;;;;5013898;28;20179;-76
2023/12/01 03:25:02;;;;;;;24.05;15.48;;;4.90;99.90;;;;;;5015506;28;20175;-75
2023/12/01 03:27:28;;;;;;;28.25;15.82;;;4.90;99.90;;;;;;5014208;28;20551;-76
2023/12/01 03:29:53;;;;;;;29.07;16.97;;;5.20;99.90;;;;;;5015414;28;20191;-76
2023/12/01 03:32:19;;;;;;;29.53;16.20;;;5.00;99.90;;;;;;5015346;28;20174;-70
2023/12/01 03:34:45;;;;;;;26.65;14.52;;;5.00;99.90;;;;;;5014649;28;20183;-76
2023/12/01 03:37:11;;;;;;;25.20;15.27;;;5.00;99.90;;;;;;5014390;28;20207;-76
2023/12/01 03:39:37;;;;;;;26.13;15.27;;;4.50;99.90;;;;;;5014030;28;20188;-76
2023/12/01 03:42:04;;;;;;;27.40;16.37;;;4.80;99.90;;;;;;4997747;28;20274;-75
2023/12/01 03:44:30;;;;;;;28.47;16.70;;;5.10;99.90;;;;;;5013039;28;20509;-76
2023/12/01 03:46:55;;;;;;;25.27;15.83;;;5.10;99.90;;;;;;5015258;28;20493;-75
2023/12/01 03:49:21;;;;;;;25.00;15.13;;;5.10;99.90;;;;;;5013566;28;20432;-75
2023/12/01 03:51:47;;;;;;;27.20;16.20;;;5.20;99.90;;;;;;5014099;28;20508;-76
2023/12/01 03:54:14;;;;;;;26.52;14.93;;;4.90;99.90;;;;;;5013870;28;20183;-60
2023/12/01 03:56:39;;;;;;;26.77;15.83;;;5.20;99.90;;;;;;5014850;28;20630;-76
2023/12/01 03:59:09;;;;;;;26.40;15.93;;;4.80;99.90;;;;;;5013979;28;20262;-76
2023/12/01 04:01:37;;;;;;;20.67;13.48;;;5.20;99.90;;;;;;5013398;28;20285;-76
2023/12/01 04:04:04;;;;;;;23.85;15.73;;;5.10;99.90;;;;;;4997326;28;20301;-74
2023/12/01 04:06:32;;;;;;;20.02;13.75;;;5.20;99.90;;;;;;5013011;28;20193;-75
2023/12/01 04:09:04;;;;;;;23.77;13.70;;;5.20;99.90;;;;;;5013747;28;20643;-76
2023/12/01 04:11:30;;;;;;;22.80;13.90;;;5.20;99.90;;;;;;5013134;28;20179;-75
2023/12/01 04:13:56;;;;;;;25.33;14.30;;;4.90;99.90;;;;;;5014362;28;20175;-75
2023/12/01 04:16:24;;;;;;;22.07;13.57;;;5.20;99.90;;;;;;5013060;28;20505;-75
2023/12/01 04:18:51;;;;;;;21.73;13.20;;;5.20;99.90;;;;;;5013660;28;20184;-75
2023/12/01 04:21:17;;;;;;;23.20;13.98;;;5.20;99.90;;;;;;5013493;28;20679;-74
2023/12/01 04:23:43;;;;;;;23.30;13.70;;;5.10;99.90;;;;;;5014234;28;20187;-74
2023/12/01 04:26:12;;;;;;;20.07;12.63;;;5.00;99.90;;;;;;5013568;28;20428;-73
2023/12/01 04:28:38;;;;;;;22.08;14.35;;;5.00;99.90;;;;;;5011954;28;20418;-74
2023/12/01 04:31:05;;;;;;;21.88;13.10;;;5.00;99.90;;;;;;5011323;28;20624;-75
2023/12/01 04:33:33;;;;;;;23.05;12.80;;;5.00;99.90;;;;;;5010987;28;20186;-75
2023/12/01 04:35:59;;;;;;;23.42;13.50;;;4.60;99.90;;;;;;5014192;28;20195;-75
2023/12/01 04:38:25;;;;;;;20.50;12.50;;;4.90;99.90;;;;;;5012671;28;20570;-74
2023/12/01 04:40:54;;;;;;;21.43;12.80;;;5.10;99.90;;;;;;5013518;28;20175;-74
2023/12/01 04:43:20;;;;;;;24.58;14.07;;;5.20;99.90;;;;;;5013079;28;20211;-71
2023/12/01 04:45:46;;;;;;;20.13;13.07;;;5.00;99.90;;;;;;5012703;28;20180;-74
2023/12/01 04:48:11;;;;;;;23.50;12.93;;;4.70;99.90;;;;;;5013738;28;20183;-75
2023/12/01 04:50:47;;;;;;;20.17;12.80;;;5.00;99.90;;;;;;4995807;28;20187;-74
2023/12/01 04:53:13;;;;;;;19.80;12.90;;;4.90;99.90;;;;;;5012430;28;20465;-74
2023/12/01 04:55:39;;;;;;;22.90;13.37;;;5.00;99.90;;;;;;5012731;28;20678;-74
2023/12/01 04:58:05;;;;;;;20.40;12.30;;;4.80;99.90;;;;;;5013134;28;20822;-67
2023/12/01 05:00:31;;;;;;;19.83;12.15;;;5.00;99.90;;;;;;4979477;28;20598;-74
2023/12/01 05:03:04;;;;;;;18.80;11.00;;;4.90;99.90;;;;;;5013385;28;20266;-74
2023/12/01 05:05:32;;;;;;;17.15;10.73;;;4.50;99.90;;;;;;5012295;28;20259;-74
2023/12/01 05:07:59;;;;;;;18.95;10.30;;;4.80;99.90;;;;;;5013775;28;20179;-73
2023/12/01 05:10:30;;;;;;;16.15;9.80;;;4.90;99.90;;;;;;4994895;28;20176;-75
2023/12/01 05:13:03;;;;;;;17.65;9.63;;;4.80;99.90;;;;;;5012332;28;20682;-75
2023/12/01 05:15:31;;;;;;;17.15;11.27;;;4.90;99.90;;;;;;5011752;28;20195;-74
2023/12/01 05:18:12;;;;;;;18.83;12.00;;;4.80;99.90;;;;;;5013574;28;20199;-73
2023/12/01 05:20:39;;;;;;;19.17;12.38;;;4.70;99.90;;;;;;5012208;28;20267;-76
2023/12/01 05:23:09;;;;;;;20.20;12.13;;;4.40;99.90;;;;;;5011276;28;20180;-75
2023/12/01 05:25:37;;;;;;;25.77;13.80;;;4.80;99.90;;;;;;5012736;28;20222;-74
2023/12/01 05:28:05;;;;;;;27.35;13.63;;;4.80;99.90;;;;;;5012839;28;20550;-74
2023/12/01 05:30:36;;;;;;;20.33;12.90;;;4.80;99.90;;;;;;4994298;28;20179;-74
2023/12/01 05:33:04;;;;;;;22.95;12.43;;;4.50;99.90;;;;;;4995438;28;20530;-75
2023/12/01 05:35:31;;;;;;;22.35;13.82;;;4.80;99.90;;;;;;5012533;28;20184;-75
2023/12/01 05:37:58;;;;;;;21.48;11.70;;;4.70;99.90;;;;;;5013373;28;20206;-75
2023/12/01 05:40:27;;;;;;;25.42;13.20;;;4.80;99.90;;;;;;5010590;28;20179;-74
2023/12/01 05:42:55;;;;;;;21.55;11.30;;;4.80;99.90;;;;;;5012266;28;20635;-74
2023/12/01 05:45:26;;;;;;;17.33;11.82;;;5.00;99.90;;;;;;4990323;28;20182;-63
2023/12/01 05:47:53;;;;;;;17.45;11.23;;;4.90;99.90;;;;;;5008896;28;20214;-74
2023/12/01 05:50:24;;;;;;;19.33;12.05;;;4.60;99.90;;;;;;4976394;28;20175;-75
2023/12/01 05:52:51;;;;;;;17.73;10.55;;;4.30;99.90;;;;;;4994675;28;20219;-74
2023/12/01 05:55:27;;;;;;;17.10;10.50;;;4.70;99.90;;;;;;5011764;28;20586;-73
2023/12/01 05:58:06;;;;;;;16.95;9.77;;;4.10;99.90;;;;;;5012436;28;20207;-75
2023/12/01 06:00:33;;;;;;;17.98;11.63;;;4.50;99.90;;;;;;5010786;28;20163;-73
2023/12/01 06:03:06;;;;;;;16.63;10.45;;;4.50;99.90;;;;;;4970301;28;20187;-74
2023/12/01 06:05:32;;;;;;;16.77;9.32;;;4.40;99.90;;;;;;5011286;28;20183;-74
2023/12/01 06:07:59;;;;;;;18.60;9.80;;;4.60;99.90;;;;;;5009205;28;20179;-74
2023/12/01 06:10:27;;;;;;;16.77;10.50;;;4.50;99.90;;;;;;5010376;28;20526;-67
2023/12/01 06:12:53;;;;;;;15.23;9.93;;;4.30;99.90;;;;;;5013372;28;20272;-68
2023/12/01 06:15:20;;;;;;;17.65;10.40;;;4.40;99.90;;;;;;5011969;28;20171;-68
2023/12/01 06:17:50;;;;;;;15.68;9.98;;;4.50;99.90;;;;;;5010891;28;20203;-69
2023/12/01 06:20:18;;;;;;;11.15;8.30;;;4.30;99.90;;;;;;5009230;28;20206;-69
2023/12/01 06:22:51;;;;;;;14.82;9.65;;;4.40;99.90;;;;;;5012318;28;20629;-68
2023/12/01 06:25:26;;;;;;;15.68;9.35;;;4.40;99.90;;;;;;5013044;28;20163;-68
2023/12/01 06:27:56;;;;;;;11.00;8.30;;;4.50;99.90;;;;;;5004180;28;20595;-68
2023/12/01 06:30:23;;;;;;;13.52;8.20;;;4.50;99.90;;;;;;5011443;28;20182;-69
2023/12/01 06:32:50;;;;;;;11.52;7.97;;;4.20;99.90;;;;;;5007624;28;20262;-65
2023/12/01 06:35:17;;;;;;;14.70;9.40;;;4.70;99.90;;;;;;5015284;28;20191;-68
2023/12/01 06:37:44;;;;;;;11.60;8.05;;;4.70;99.90;;;;;;5014996;28;20846;-69
2023/12/01 06:40:11;;;;;;;12.60;7.85;;;4.40;99.90;;;;;;5015007;28;20174;-69
2023/12/01 06:42:52;;;;;;;12.02;8.25;;;4.40;99.90;;;;;;5016189;28;20229;-68
2023/12/01 06:45:19;;;;;;;10.32;7.70;;;4.20;99.90;;;;;;5016731;28;20171;-69
2023/12/01 06:47:47;;;;;;;10.02;8.20;;;4.40;99.90;;;;;;5015822;28;20183;-69
2023/12/01 06:50:20;;;;;;;14.57;8.68;;;4.30;99.90;;;;;;4997351;28;20233;-69
2023/12/01 06:52:51;;;;;;;11.57;7.60;;;4.20;99.90;;;;;;5011021;28;20222;-76
2023/12/01 06:55:17;;;;;;;14.52;10.02;;;4.00;99.90;;;;;;5016751;28;20191;-66
2023/12/01 06:57:49;;;;;;;20.80;10.17;;;3.70;99.90;;;;;;5012587;28;20237;-69
2023/12/01 07:03:07;;;;;;;14.65;9.30;;;3.60;99.90;;;;;;5014667;28;20623;-68
2023/12/01 07:05:35;;;;;;;11.20;8.00;;;3.50;99.90;;;;;;5015610;28;20179;-67
2023/12/01 07:08:03;;;;;;;12.93;8.50;;;3.40;99.90;;;;;;5016039;28;20187;-69
2023/12/01 07:10:29;;;;;;;13.68;7.95;;;3.20;99.90;;;;;;4997558;28;20533;-68
2023/12/01 07:12:55;;;;;;;13.80;8.17;;;3.40;99.90;;;;;;5015644;28;20172;-68
2023/12/01 07:15:24;;;;;;;13.15;8.70;;;3.30;99.90;;;;;;4998073;28;20431;-70
2023/12/01 07:17:54;;;;;;;11.35;8.90;;;3.30;99.90;;;;;;5015012;28;20219;-69
2023/12/01 07:20:21;;;;;;;15.90;9.38;;;3.30;99.90;;;;;;5016326;28;20221;-69
2023/12/01 07:22:48;;;;;;;13.63;9.05;;;3.10;99.90;;;;;;5014801;28;20562;-69
2023/12/01 07:25:22;;;;;;;17.13;10.02;;;2.80;99.90;;;;;;5015813;28;20270;-69
2023/12/01 07:27:59;;;;;;;15.30;9.00;;;3.40;99.90;;;;;;5014592;28;20190;-68
2023/12/01 07:30:29;;;;;;;12.93;8.68;;;3.60;99.90;;;;;;5015942;28;20155;-66
2023/12/01 07:32:57;;;;;;;10.68;7.97;;;3.60;99.90;;;;;;5006337;28;20705;-69
2023/12/01 07:35:23;;;;;;;14.73;9.57;;;3.70;99.90;;;;;;5000897;28;20537;-68
2023/12/01 07:37:52;;;;;;;10.37;7.70;;;3.80;99.90;;;;;;5012856;28;20211;-67
2023/12/01 07:40:22;;;;;;;11.88;7.88;;;3.90;99.90;;;;;;5014971;28;20171;-69
2023/12/01 07:42:49;;;;;;;11.93;7.78;;;3.90;99.90;;;;;;4997686;28;20211;-68
2023/12/01 07:45:19;;;;;;;11.23;7.60;;;4.10;99.90;;;;;;4980718;28;20179;-69
2023/12/01 07:47:48;;;;;;;11.80;8.15;;;4.10;99.90;;;;;;5013853;28;20187;-69
2023/12/01 07:50:15;;;;;;;11.93;7.50;;;4.20;99.90;;;;;;5015026;28;20168;-69
2023/12/01 07:52:48;;;;;;;9.13;7.55;;;4.10;99.90;;;;;;5012787;28;20680;-67
2023/12/01 07:55:14;;;;;;;11.05;7.68;;;4.20;99.90;;;;;;5014215;28;20238;-67
2023/12/01 07:57:40;;;;;;;11.65;9.18;;;4.00;99.90;;;;;;5012840;28;20230;-81
2023/12/01 08:00:16;;;;;;;11.90;8.32;;;3.80;99.90;;;;;;5014406;28;20171;-75
2023/12/01 08:02:53;;;;;;;11.13;8.10;;;4.10;99.90;;;;;;5012253;28;20198;-74
2023/12/01 08:05:19;;;;;;;9.77;8.27;;;4.00;99.90;;;;;;4997301;28;20254;-75
2023/12/01 08:07:52;;;;;;;11.75;8.10;;;3.90;99.90;;;;;;5014009;28;20190;-75
2023/12/01 08:10:21;;;;;;;11.63;8.13;;;3.90;99.90;;;;;;5013362;28;20184;-74
2023/12/01 08:12:49;;;;;;;14.48;9.25;;;3.50;99.90;;;;;;5010008;28;20258;-69
2023/12/01 08:15:15;;;;;;;14.65;9.93;;;3.80;99.90;;;;;;5000610;28;20207;-71
2023/12/01 08:17:42;;;;;;;12.77;9.02;;;3.90;99.90;;;;;;5000310;28;20292;-72
2023/12/01 08:20:08;;;;;;;12.82;9.57;;;3.70;99.90;;;;;;5004999;28;20167;-62
2023/12/01 08:22:35;;;;;;;15.60;11.35;;;4.90;99.90;;;;;;5000331;28;20222;-63
2023/12/01 08:25:01;;;;;;;14.73;10.50;;;6.00;99.90;;;;;;5001474;28;20238;-63
2023/12/01 08:27:28;;;;;;;12.10;8.90;;;6.50;99.90;;;;;;4997705;28;20438;-63
2023/12/01 08:29:54;;;;;;;14.30;11.07;;;7.20;99.90;;;;;;5008898;28;20488;-61
2023/12/01 08:32:20;;;;;;;12.37;10.13;;;7.90;99.90;;;;;;5013724;28;20841;-61
2023/12/01 08:34:45;;;;;;;13.17;10.23;;;8.60;99.90;;;;;;4998939;28;20691;-61
2023/12/01 08:37:11;;;;;;;15.30;11.63;;;9.30;99.90;;;;;;4995555;28;20561;-61
2023/12/01 08:39:37;;;;;;;22.20;14.23;;;9.90;99.90;;;;;;5013555;28;20584;-61
2023/12/01 08:42:03;;;;;;;17.90;12.30;;;10.40;99.90;;;;;;5013494;28;20204;-61
2023/12/01 08:44:29;;;;;;;17.37;12.57;;;10.90;99.90;;;;;;5004563;28;20502;-61
2023/12/01 08:46:56;;;;;;;16.33;11.93;;;11.20;99.90;;;;;;5001106;28;20517;-62
2023/12/01 08:49:21;;;;;;;14.57;11.20;;;11.40;98.90;;;;;;4993753;28;20426;-62
2023/12/01 08:51:47;;;;;;;22.93;14.77;;;11.70;95.20;;;;;;5011467;28;20466;-61
2023/12/01 08:54:13;;;;;;;15.23;12.23;;;11.80;98.40;;;;;;5011748;28;20222;-61
2023/12/01 08:56:41;;;;;;;16.87;13.30;;;12.00;98.60;;;;;;5011038;28;20460;-70
2023/12/01 08:59:07;;;;;;;17.50;12.97;;;12.20;97.80;;;;;;5011720;28;20182;-71
2023/12/01 09:01:33;;;;;;;17.00;14.00;;;12.00;90.00;;;;;;5006973;28;20513;-69
2023/12/01 09:03:59;;;;;;;20.67;14.13;;;11.50;81.50;;;;;;5012274;28;21288;-71
2023/12/01 09:06:24;;;;;;;20.70;13.90;;;10.80;80.30;;;;;;5014095;28;20189;-69
2023/12/01 09:08:50;;;;;;;18.27;14.57;;;10.00;81.50;;;;;;4995449;28;20185;-69
2023/12/01 09:11:16;;;;;;;21.30;12.80;;;9.30;85.90;;;;;;5013391;28;20179;-71
2023/12/01 09:13:42;;;;;;;123.67;65.37;;;8.90;87.20;;;;;;5012870;28;20325;-69
2023/12/01 09:16:08;;;;;;;36.90;23.80;;;8.20;89.80;;;;;;5006913;28;20420;-71
2023/12/01 09:18:34;;;;;;;25.00;14.43;;;7.90;91.80;;;;;;5012594;28;20171;-67
2023/12/01 09:21:00;;;;;;;19.53;13.80;;;7.40;94.00;;;;;;5008010;28;20416;-70
2023/12/01 09:23:26;;;;;;;22.40;13.57;;;6.70;96.00;;;;;;5012532;28;20181;-73
2023/12/01 09:25:52;;;;;;;23.47;12.93;;;6.50;96.20;;;;;;5010650;28;20238;-60
2023/12/01 09:28:17;;;;;;;23.20;14.07;;;6.30;96.90;;;;;;4997982;28;20428;-58
2023/12/01 09:30:43;;;;;;;24.93;14.10;;;6.10;98.60;;;;;;5009652;28;20437;-56
2023/12/01 09:33:09;;;;;;;22.20;13.60;;;5.90;99.90;;;;;;5012932;28;20441;-56
2023/12/01 09:35:35;;;;;;;22.00;13.30;;;5.70;99.90;;;;;;5012948;28;20164;-58
2023/12/01 09:38:01;;;;;;;19.10;12.50;;;5.50;99.90;;;;;;5013423;28;20481;-58
2023/12/01 09:40:26;;;;;;;20.77;12.73;;;5.30;99.90;;;;;;5013381;28;20182;-56
2023/12/01 09:42:53;;;;;;;23.60;13.77;;;5.30;99.90;;;;;;5012902;28;20190;-56
2023/12/01 09:45:21;;;;;;;20.65;14.40;;;5.30;99.90;;;;;;5013432;28;20261;-56
2023/12/01 09:47:52;;;;;;;23.27;14.33;;;5.30;99.90;;;;;;5013095;28;20179;-56
2023/12/01 09:50:20;;;;;;;22.10;13.57;;;5.20;99.90;;;;;;5013309;28;20402;-56
2023/12/01 09:52:46;;;;;;;22.70;13.40;;;5.20;99.90;;;;;;5011259;28;20214;-58
2023/12/01 09:55:12;;;;;;;21.73;13.60;;;5.10;99.90;;;;;;5012635;28;20186;-56
2023/12/01 09:57:38;;;;;;;24.67;14.50;;;5.10;99.90;;;;;;5012506;28;20280;-58
2023/12/01 10:00:10;;;;;;;26.00;15.07;;;5.10;99.90;;;;;;5013183;28;20511;-57
2023/12/01 10:02:39;;;;;;;20.70;12.90;;;5.10;99.90;;;;;;5012394;28;20156;-60
2023/12/01 10:05:11;;;;;;;23.75;14.57;;;5.00;99.90;;;;;;5013127;28;20248;-57
2023/12/01 10:07:37;;;;;;;23.45;14.70;;;5.00;99.90;;;;;;5011989;28;20514;-59
2023/12/01 10:10:23;;;;;;;24.83;15.07;;;5.00;99.90;;;;;;5013064;28;20262;-56
2023/12/01 10:12:58;;;;;;;26.77;14.95;;;5.20;99.90;;;;;;4994712;28;20460;-56
2023/12/01 10:15:25;;;;;;;19.33;13.90;;;5.00;99.90;;;;;;5013006;28;20179;-57
2023/12/01 10:18:06;;;;;;;24.13;14.70;;;4.70;99.90;;;;;;4994640;28;20203;-58
2023/12/01 10:20:32;;;;;;;23.67;14.60;;;4.90;99.90;;;;;;4995444;28;20825;-58
2023/12/01 10:22:58;;;;;;;30.83;16.50;;;4.80;99.90;;;;;;5011480;28;20202;-56
2023/12/01 10:25:24;;;;;;;30.97;16.20;;;4.90;99.90;;;;;;5012927;28;20230;-57
2023/12/01 10:27:55;;;;;;;29.17;15.40;;;4.90;99.90;;;;;;5012299;28;20216;-58
2023/12/01 10:30:21;;;;;;;24.77;15.85;;;4.90;99.90;;;;;;5012798;28;20259;-57
2023/12/01 10:32:47;;;;;;;29.38;15.90;;;4.80;99.90;;;;;;5012180;28;20190;-56
2023/12/01 10:35:13;;;;;;;34.15;17.20;;;4.90;99.90;;;;;;4995109;28;20191;-57
2023/12/01 10:37:39;;;;;;;31.75;17.10;;;4.80;99.90;;;;;;4994634;28;20282;-58
2023/12/01 10:40:13;;;;;;;25.23;16.27;;;4.90;99.90;;;;;;5012669;28;20209;-56
2023/12/01 10:42:40;;;;;;;23.75;14.15;;;4.90;99.90;;;;;;4994710;28;20406;-58
2023/12/01 10:45:06;;;;;;;24.65;15.48;;;4.90;99.90;;;;;;5012654;28;20195;-56
2023/12/01 10:47:34;;;;;;;25.27;15.25;;;4.80;99.90;;;;;;5012511;28;20195;-54
2023/12/01 10:50:02;;;;;;;24.23;14.82;;;5.00;99.90;;;;;;5011926;28;20261;-56
2023/12/01 10:52:30;;;;;;;18.63;11.95;;;4.90;99.90;;;;;;5012448;28;20229;-56
2023/12/01 10:54:56;;;;;;;24.88;15.50;;;4.70;99.90;;;;;;5010837;28;20575;-57
2023/12/01 10:57:27;;;;;;;23.83;14.07;;;4.50;99.90;;;;;;5012487;28;20242;-56
2023/12/01 10:59:56;;;;;;;24.05;13.23;;;4.30;99.90;;;;;;5012016;28;20230;-56
2023/12/01 11:02:25;;;;;;;22.90;13.40;;;4.30;99.90;;;;;;5012515;28;20176;-56
2023/12/01 11:04:51;;;;;;;22.65;13.80;;;4.30;99.90;;;;;;4989585;28;20613;-57
2023/12/01 11:07:23;;;;;;;20.35;13.13;;;4.40;99.90;;;;;;5011508;28;20670;-57
2023/12/01 11:10:07;;;;;;;23.17;13.20;;;4.50;99.90;;;;;;5011998;28;20198;-58
2023/12/01 11:12:45;;;;;;;27.58;14.20;;;4.50;99.90;;;;;;4994885;28;20171;-56
2023/12/01 11:15:18;;;;;;;26.00;14.02;;;4.50;99.90;;;;;;5012762;28;20174;-57
2023/12/01 11:17:44;;;;;;;25.15;13.43;;;4.60;99.90;;;;;;5011796;28;20204;-57
2023/12/01 11:20:28;;;;;;;25.85;14.25;;;4.50;99.90;;;;;;5014893;28;20178;-57
2023/12/01 11:23:03;;;;;;;25.00;14.18;;;4.50;99.90;;;;;;5015563;28;20222;-56
2023/12/01 11:25:46;;;;;;;24.67;14.90;;;4.50;99.90;;;;;;5016071;28;20168;-55
2023/12/01 11:33:57;;;;;;;25.65;16.30;;;4.70;99.90;;;;;;5014433;28;20612;-58
2023/12/01 11:36:35;;;;;;;27.08;15.35;;;4.50;99.90;;;;;;5013254;28;20663;-58
2023/12/01 11:39:14;;;;;;;27.80;16.38;;;4.50;99.90;;;;;;5015237;28;20482;-59
2023/12/01 11:41:46;;;;;;;28.85;16.50;;;4.30;99.90;;;;;;4998095;28;20168;-56
2023/12/01 11:44:15;;;;;;;28.10;16.00;;;4.50;99.90;;;;;;5015245;28;20182;-56
2023/12/01 11:46:41;;;;;;;30.45;17.00;;;4.70;99.90;;;;;;5015179;28;20219;-57
2023/12/01 11:49:07;;;;;;;25.98;14.90;;;4.60;99.90;;;;;;5015209;28;20217;-56
2023/12/01 11:51:33;;;;;;;32.33;15.97;;;4.70;99.90;;;;;;5015144;28;20672;-58
2023/12/01 11:54:01;;;;;;;27.73;14.70;;;4.70;99.90;;;;;;4997381;28;20523;-57
2023/12/01 11:56:27;;;;;;;29.52;17.85;;;4.10;99.90;;;;;;5015383;28;20211;-60
2023/12/01 11:58:54;;;;;;;26.20;15.80;;;4.70;99.90;;;;;;5014871;28;20258;-57
2023/12/01 12:01:20;;;;;;;26.05;15.50;;;4.50;99.90;;;;;;5015081;28;20262;-57
2023/12/01 12:03:56;;;;;;;27.20;15.50;;;4.60;99.90;;;;;;5013804;28;20176;-57
2023/12/01 12:06:23;;;;;;;22.63;13.80;;;4.20;99.90;;;;;;5015278;28;20585;-59
2023/12/01 12:08:50;;;;;;;27.25;16.27;;;4.50;99.90;;;;;;5014513;28;20241;-57
2023/12/01 12:11:17;;;;;;;29.02;17.65;;;4.60;99.90;;;;;;5015208;28;20209;-57
2023/12/01 12:13:43;;;;;;;25.23;16.10;;;4.40;99.90;;;;;;5015165;28;20225;-57
2023/12/01 12:16:11;;;;;;;23.15;14.50;;;4.40;99.90;;;;;;5015005;28;20167;-56
2023/12/01 12:18:37;;;;;;;23.90;16.30;;;4.50;99.90;;;;;;5015083;28;20175;-58
2023/12/01 12:21:04;;;;;;;28.85;15.02;;;4.60;99.90;;;;;;4995778;28;20175;-57
2023/12/01 12:23:31;;;;;;;28.40;14.30;;;4.50;99.90;;;;;;5015089;28;20182;-58
2023/12/01 12:26:16;;;;;;;23.45;13.88;;;4.50;99.90;;;;;;5013232;28;20241;-57
2023/12/01 12:28:43;;;;;;;27.02;16.10;;;4.60;99.90;;;;;;4998048;28;20266;-57
2023/12/01 12:31:09;;;;;;;25.60;14.65;;;4.60;99.90;;;;;;4996081;28;20222;-58
2023/12/01 12:33:36;;;;;;;23.77;14.82;;;4.70;99.90;;;;;;5014709;28;20183;-57
2023/12/01 12:36:02;;;;;;;25.15;15.77;;;4.60;99.90;;;;;;5014001;28;20175;-57
2023/12/01 12:38:27;;;;;;;25.70;15.70;;;4.70;99.90;;;;;;5012698;28;20176;-57
2023/12/01 12:40:54;;;;;;;24.03;13.97;;;4.70;99.90;;;;;;5012963;28;20194;-58
2023/12/01 12:43:20;;;;;;;23.92;14.90;;;4.70;99.90;;;;;;5014533;28;20171;-57
2023/12/01 12:45:49;;;;;;;24.58;15.02;;;4.70;99.90;;;;;;5013747;28;20183;-59
2023/12/01 12:48:15;;;;;;;23.25;16.02;;;4.70;99.90;;;;;;4999580;28;20191;-60
2023/12/01 12:50:42;;;;;;;23.80;14.40;;;4.40;99.90;;;;;;4976013;28;20183;-57